sensor_id;sensor_type;location;lat;lon;timestamp;pressure;altitude;pressure_sealevel;temperature
53512;BMP280;39392;52.832;13.816;2023-07-13T00:02:11;101094.09;;;26.06
53512;BMP280;39392;52.832;13.816;2023-07-13T00:04:37;101105.31;;;26.05
53512;BMP280;39392;52.832;13.816;2023-07-13T00:07:04;101099.84;;;26.05
53512;BMP280;39392;52.832;13.816;2023-07-13T00:09:30;101103.41;;;26.05
53512;BMP280;39392;52.832;13.816;2023-07-13T00:11:57;101096.25;;;26.04
53512;BMP280;39392;52.832;13.816;2023-07-13T00:14:24;101088.84;;;26.05
53512;BMP280;39392;52.832;13.816;2023-07-13T00:16:51;101089.88;;;26.04
53512;BMP280;39392;52.832;13.816;2023-07-13T00:19:18;101090.75;;;26.04
53512;BMP280;39392;52.832;13.816;2023-07-13T00:21:45;101104.47;;;26.04
53512;BMP280;39392;52.832;13.816;2023-07-13T00:24:17;101110.81;;;26.05
53512;BMP280;39392;52.832;13.816;2023-07-13T00:26:48;101093.50;;;26.04
53512;BMP280;39392;52.832;13.816;2023-07-13T00:29:14;101100.88;;;26.04
53512;BMP280;39392;52.832;13.816;2023-07-13T00:31:42;101104.47;;;26.04
53512;BMP280;39392;52.832;13.816;2023-07-13T00:34:10;101100.66;;;26.05
53512;BMP280;39392;52.832;13.816;2023-07-13T00:36:36;101104.47;;;26.04
53512;BMP280;39392;52.832;13.816;2023-07-13T00:39:03;101093.69;;;26.03
53512;BMP280;39392;52.832;13.816;2023-07-13T00:41:32;101096.44;;;26.03
53512;BMP280;39392;52.832;13.816;2023-07-13T00:43:58;101093.69;;;26.03
53512;BMP280;39392;52.832;13.816;2023-07-13T00:46:29;101098.13;;;26.04
53512;BMP280;39392;52.832;13.816;2023-07-13T00:48:57;101099.19;;;26.03
53512;BMP280;39392;52.832;13.816;2023-07-13T00:51:30;101096.44;;;26.03
53512;BMP280;39392;52.832;13.816;2023-07-13T00:53:58;101084.63;;;26.02
53512;BMP280;39392;52.832;13.816;2023-07-13T00:56:26;101087.34;;;26.02
53512;BMP280;39392;52.832;13.816;2023-07-13T00:58:52;101084.63;;;26.02
53512;BMP280;39392;52.832;13.816;2023-07-13T01:01:19;101087.34;;;26.02
53512;BMP280;39392;52.832;13.816;2023-07-13T01:03:46;101083.78;;;26.02
53512;BMP280;39392;52.832;13.816;2023-07-13T01:06:13;101083.13;;;26.00
53512;BMP280;39392;52.832;13.816;2023-07-13T01:08:40;101084.84;;;26.01
53512;BMP280;39392;52.832;13.816;2023-07-13T01:11:07;101079.53;;;25.99
53512;BMP280;39392;52.832;13.816;2023-07-13T01:13:34;101075.34;;;25.97
53512;BMP280;39392;52.832;13.816;2023-07-13T01:16:02;101079.56;;;25.93
53512;BMP280;39392;52.832;13.816;2023-07-13T01:18:30;101086.75;;;25.94
53512;BMP280;39392;52.832;13.816;2023-07-13T01:20:58;101082.31;;;25.93
53512;BMP280;39392;52.832;13.816;2023-07-13T01:23:25;101075.13;;;25.92
53512;BMP280;39392;52.832;13.816;2023-07-13T01:25:52;101082.31;;;25.93
53512;BMP280;39392;52.832;13.816;2023-07-13T01:28:19;101090.34;;;25.94
53512;BMP280;39392;52.832;13.816;2023-07-13T01:30:46;101087.59;;;25.94
53512;BMP280;39392;52.832;13.816;2023-07-13T01:33:14;101086.53;;;25.95
53512;BMP280;39392;52.832;13.816;2023-07-13T01:35:41;101079.34;;;25.94
53512;BMP280;39392;52.832;13.816;2023-07-13T01:38:08;101077.44;;;25.95
53512;BMP280;39392;52.832;13.816;2023-07-13T01:40:35;101081.88;;;25.96
53512;BMP280;39392;52.832;13.816;2023-07-13T01:43:02;101100.25;;;25.95
53512;BMP280;39392;52.832;13.816;2023-07-13T01:45:29;101098.34;;;25.96
53512;BMP280;39392;52.832;13.816;2023-07-13T01:47:56;101101.97;;;25.96
53512;BMP280;39392;52.832;13.816;2023-07-13T01:50:22;101096.66;;;25.95
53512;BMP280;39392;52.832;13.816;2023-07-13T01:52:49;101095.59;;;25.96
53512;BMP280;39392;52.832;13.816;2023-07-13T01:55:15;101086.53;;;25.95
53512;BMP280;39392;52.832;13.816;2023-07-13T01:57:42;101085.69;;;25.95
53512;BMP280;39392;52.832;13.816;2023-07-13T02:00:09;101083.78;;;25.95
53512;BMP280;39392;52.832;13.816;2023-07-13T02:02:36;101082.09;;;25.94
53512;BMP280;39392;52.832;13.816;2023-07-13T02:05:03;101090.09;;;25.96
53512;BMP280;39392;52.832;13.816;2023-07-13T02:07:29;101092.84;;;25.96
53512;BMP280;39392;52.832;13.816;2023-07-13T02:09:56;101089.06;;;25.97
53512;BMP280;39392;52.832;13.816;2023-07-13T02:12:22;101093.91;;;25.95
53512;BMP280;39392;52.832;13.816;2023-07-13T02:14:49;101104.72;;;25.96
53512;BMP280;39392;52.832;13.816;2023-07-13T02:17:15;101101.09;;;25.96
53512;BMP280;39392;52.832;13.816;2023-07-13T02:19:42;101113.16;;;25.95
53512;BMP280;39392;52.832;13.816;2023-07-13T02:22:08;101115.03;;;25.94
53512;BMP280;39392;52.832;13.816;2023-07-13T02:24:35;101114.81;;;25.96
53512;BMP280;39392;52.832;13.816;2023-07-13T02:27:01;101114.22;;;25.94
53512;BMP280;39392;52.832;13.816;2023-07-13T02:29:28;101117.78;;;25.94
53512;BMP280;39392;52.832;13.816;2023-07-13T02:31:54;101116.13;;;25.93
53512;BMP280;39392;52.832;13.816;2023-07-13T02:34:20;101118.03;;;25.93
53512;BMP280;39392;52.832;13.816;2023-07-13T02:36:47;101120.53;;;25.94
53512;BMP280;39392;52.832;13.816;2023-07-13T02:39:13;101124.34;;;25.93
53512;BMP280;39392;52.832;13.816;2023-07-13T02:41:40;101125.19;;;25.94
53512;BMP280;39392;52.832;13.816;2023-07-13T02:44:06;101116.13;;;25.93
53512;BMP280;39392;52.832;13.816;2023-07-13T02:46:35;101120.53;;;25.94
53512;BMP280;39392;52.832;13.816;2023-07-13T02:49:02;101126.03;;;25.94
53512;BMP280;39392;52.832;13.816;2023-07-13T02:51:29;101123.50;;;25.93
53512;BMP280;39392;52.832;13.816;2023-07-13T02:53:56;101115.47;;;25.91
53512;BMP280;39392;52.832;13.816;2023-07-13T02:56:23;101123.50;;;25.93
53512;BMP280;39392;52.832;13.816;2023-07-13T02:58:50;101125.19;;;25.94
53512;BMP280;39392;52.832;13.816;2023-07-13T03:01:16;101131.75;;;25.93
53512;BMP280;39392;52.832;13.816;2023-07-13T03:03:45;101135.53;;;25.92
53512;BMP280;39392;52.832;13.816;2023-07-13T03:06:12;101134.69;;;25.91
53512;BMP280;39392;52.832;13.816;2023-07-13T03:08:40;101124.78;;;25.90
53512;BMP280;39392;52.832;13.816;2023-07-13T03:11:08;101127.50;;;25.90
53512;BMP280;39392;52.832;13.816;2023-07-13T03:13:35;101135.97;;;25.89
53512;BMP280;39392;52.832;13.816;2023-07-13T03:16:02;101137.88;;;25.88
53512;BMP280;39392;52.832;13.816;2023-07-13T03:18:28;101137.03;;;25.88
53512;BMP280;39392;52.832;13.816;2023-07-13T03:20:55;101144.41;;;25.87
53512;BMP280;39392;52.832;13.816;2023-07-13T03:23:22;101148.03;;;25.88
53512;BMP280;39392;52.832;13.816;2023-07-13T03:25:48;101157.94;;;25.89
53512;BMP280;39392;52.832;13.816;2023-07-13T03:28:15;101154.13;;;25.90
53512;BMP280;39392;52.832;13.816;2023-07-13T03:30:41;101145.06;;;25.89
53512;BMP280;39392;52.832;13.816;2023-07-13T03:33:08;101136.59;;;25.91
53512;BMP280;39392;52.832;13.816;2023-07-13T03:35:35;101146.97;;;25.89
53512;BMP280;39392;52.832;13.816;2023-07-13T03:38:01;101140.41;;;25.90
53512;BMP280;39392;52.832;13.816;2023-07-13T03:40:28;101147.81;;;25.89
53512;BMP280;39392;52.832;13.816;2023-07-13T03:42:54;101139.56;;;25.89
53512;BMP280;39392;52.832;13.816;2023-07-13T03:45:21;101145.06;;;25.89
53512;BMP280;39392;52.832;13.816;2023-07-13T03:47:47;101151.63;;;25.88
53512;BMP280;39392;52.832;13.816;2023-07-13T03:50:14;101134.28;;;25.88
53512;BMP280;39392;52.832;13.816;2023-07-13T03:52:41;101147.81;;;25.89
53512;BMP280;39392;52.832;13.816;2023-07-13T03:55:07;101141.47;;;25.89
53512;BMP280;39392;52.832;13.816;2023-07-13T03:57:34;101144.41;;;25.87
53512;BMP280;39392;52.832;13.816;2023-07-13T04:00:04;101153.53;;;25.88
53512;BMP280;39392;52.832;13.816;2023-07-13T04:02:32;101145.28;;;25.88
53512;BMP280;39392;52.832;13.816;2023-07-13T04:04:58;101147.16;;;25.87
53512;BMP280;39392;52.832;13.816;2023-07-13T04:07:25;101162.16;;;25.85
53512;BMP280;39392;52.832;13.816;2023-07-13T04:09:52;101162.16;;;25.85
53512;BMP280;39392;52.832;13.816;2023-07-13T04:12:19;101170.19;;;25.86
53512;BMP280;39392;52.832;13.816;2023-07-13T04:14:45;101168.50;;;25.85
53512;BMP280;39392;52.832;13.816;2023-07-13T04:17:12;101159.63;;;25.83
53512;BMP280;39392;52.832;13.816;2023-07-13T04:19:38;101177.59;;;25.86
53512;BMP280;39392;52.832;13.816;2023-07-13T04:22:05;101167.84;;;25.83
53512;BMP280;39392;52.832;13.816;2023-07-13T04:24:31;101164.06;;;25.84
53512;BMP280;39392;52.832;13.816;2023-07-13T04:26:58;101171.47;;;25.83
53512;BMP280;39392;52.832;13.816;2023-07-13T04:29:26;101180.56;;;25.84
53512;BMP280;39392;52.832;13.816;2023-07-13T04:31:53;101172.31;;;25.84
53512;BMP280;39392;52.832;13.816;2023-07-13T04:34:19;101176.75;;;25.85
53512;BMP280;39392;52.832;13.816;2023-07-13T04:36:46;101180.56;;;25.84
53512;BMP280;39392;52.832;13.816;2023-07-13T04:39:12;101186.03;;;25.84
53512;BMP280;39392;52.832;13.816;2023-07-13T04:41:39;101190.69;;;25.83
53512;BMP280;39392;52.832;13.816;2023-07-13T04:44:05;101192.38;;;25.85
53512;BMP280;39392;52.832;13.816;2023-07-13T04:46:32;101197.88;;;25.85
53512;BMP280;39392;52.832;13.816;2023-07-13T04:48:58;101192.38;;;25.85
53512;BMP280;39392;52.832;13.816;2023-07-13T04:51:25;101198.72;;;25.85
53512;BMP280;39392;52.832;13.816;2023-07-13T04:53:52;101203.13;;;25.86
53512;BMP280;39392;52.832;13.816;2023-07-13T04:56:26;101204.19;;;25.85
53512;BMP280;39392;52.832;13.816;2023-07-13T04:58:52;101202.53;;;25.84
53512;BMP280;39392;52.832;13.816;2023-07-13T05:01:19;101197.03;;;25.84
53512;BMP280;39392;52.832;13.816;2023-07-13T05:03:46;101201.22;;;25.87
53512;BMP280;39392;52.832;13.816;2023-07-13T05:06:13;101203.13;;;25.86
53512;BMP280;39392;52.832;13.816;2023-07-13T05:08:40;101196.81;;;25.86
53512;BMP280;39392;52.832;13.816;2023-07-13T05:11:06;101195.75;;;25.87
53512;BMP280;39392;52.832;13.816;2023-07-13T05:13:34;101199.31;;;25.87
53512;BMP280;39392;52.832;13.816;2023-07-13T05:16:01;101201.22;;;25.87
53512;BMP280;39392;52.832;13.816;2023-07-13T05:18:29;101202.06;;;25.87
53512;BMP280;39392;52.832;13.816;2023-07-13T05:20:57;101191.09;;;25.87
53512;BMP280;39392;52.832;13.816;2023-07-13T05:23:23;101210.13;;;25.89
53512;BMP280;39392;52.832;13.816;2023-07-13T05:25:50;101206.53;;;25.88
53512;BMP280;39392;52.832;13.816;2023-07-13T05:28:16;101211.19;;;25.88
53512;BMP280;39392;52.832;13.816;2023-07-13T05:30:46;101206.53;;;25.88
53512;BMP280;39392;52.832;13.816;2023-07-13T05:33:13;101204.81;;;25.87
53512;BMP280;39392;52.832;13.816;2023-07-13T05:35:39;101201.88;;;25.89
53512;BMP280;39392;52.832;13.816;2023-07-13T05:38:06;101201.66;;;25.90
53512;BMP280;39392;52.832;13.816;2023-07-13T05:40:32;101208.00;;;25.91
53512;BMP280;39392;52.832;13.816;2023-07-13T05:42:59;101212.66;;;25.90
53512;BMP280;39392;52.832;13.816;2023-07-13T05:45:26;101218.13;;;25.90
53512;BMP280;39392;52.832;13.816;2023-07-13T05:47:52;101216.22;;;25.91
53512;BMP280;39392;52.832;13.816;2023-07-13T05:50:19;101215.16;;;25.92
53512;BMP280;39392;52.832;13.816;2023-07-13T05:52:45;101211.59;;;25.91
53512;BMP280;39392;52.832;13.816;2023-07-13T05:55:12;101216.03;;;25.92
53512;BMP280;39392;52.832;13.816;2023-07-13T05:57:39;101219.63;;;25.93
53512;BMP280;39392;52.832;13.816;2023-07-13T06:00:05;101216.03;;;25.92
53512;BMP280;39392;52.832;13.816;2023-07-13T06:02:32;101219.63;;;25.93
53512;BMP280;39392;52.832;13.816;2023-07-13T06:04:59;101226.81;;;25.94
53512;BMP280;39392;52.832;13.816;2023-07-13T06:07:25;101222.16;;;25.94
53512;BMP280;39392;52.832;13.816;2023-07-13T06:09:52;101222.16;;;25.94
53512;BMP280;39392;52.832;13.816;2023-07-13T06:12:18;101224.91;;;25.94
53512;BMP280;39392;52.832;13.816;2023-07-13T06:14:45;101227.44;;;25.96
53512;BMP280;39392;52.832;13.816;2023-07-13T06:17:11;101225.75;;;25.95
53512;BMP280;39392;52.832;13.816;2023-07-13T06:19:38;101222.81;;;25.96
53512;BMP280;39392;52.832;13.816;2023-07-13T06:22:04;101224.69;;;25.96
53512;BMP280;39392;52.832;13.816;2023-07-13T06:24:31;101223.84;;;25.95
53512;BMP280;39392;52.832;13.816;2023-07-13T06:26:57;101221.75;;;25.97
53512;BMP280;39392;52.832;13.816;2023-07-13T06:29:24;101219.19;;;25.96
53512;BMP280;39392;52.832;13.816;2023-07-13T06:31:50;101227.22;;;25.97
53512;BMP280;39392;52.832;13.816;2023-07-13T06:34:17;101220.91;;;25.97
53512;BMP280;39392;52.832;13.816;2023-07-13T06:36:43;101213.50;;;25.97
53512;BMP280;39392;52.832;13.816;2023-07-13T06:39:10;101216.25;;;25.97
53512;BMP280;39392;52.832;13.816;2023-07-13T06:41:36;101211.38;;;25.99
53512;BMP280;39392;52.832;13.816;2023-07-13T06:44:05;101213.28;;;25.99
53512;BMP280;39392;52.832;13.816;2023-07-13T06:46:31;101212.22;;;26.00
53512;BMP280;39392;52.832;13.816;2023-07-13T06:48:58;101214.13;;;25.99
53512;BMP280;39392;52.832;13.816;2023-07-13T06:51:25;101216.88;;;25.99
53512;BMP280;39392;52.832;13.816;2023-07-13T06:53:52;101213.28;;;25.99
53512;BMP280;39392;52.832;13.816;2023-07-13T06:56:18;101215.59;;;26.02
53512;BMP280;39392;52.832;13.816;2023-07-13T06:58:45;101219.41;;;26.01
53512;BMP280;39392;52.832;13.816;2023-07-13T07:01:11;101215.59;;;26.02
53512;BMP280;39392;52.832;13.816;2023-07-13T07:03:38;101213.69;;;26.02
53512;BMP280;39392;52.832;13.816;2023-07-13T07:06:23;101202.72;;;26.02
53512;BMP280;39392;52.832;13.816;2023-07-13T07:08:50;101209.06;;;26.03
53512;BMP280;39392;52.832;13.816;2023-07-13T07:11:19;101200.81;;;26.03
53512;BMP280;39392;52.832;13.816;2023-07-13T07:13:47;101211.59;;;26.04
53512;BMP280;39392;52.832;13.816;2023-07-13T07:16:13;101198.91;;;26.03
53512;BMP280;39392;52.832;13.816;2023-07-13T07:18:40;101194.06;;;26.05
53512;BMP280;39392;52.832;13.816;2023-07-13T07:21:09;101200.41;;;26.06
53512;BMP280;39392;52.832;13.816;2023-07-13T07:23:36;101194.06;;;26.05
53512;BMP280;39392;52.832;13.816;2023-07-13T07:26:06;101183.06;;;26.05
53512;BMP280;39392;52.832;13.816;2023-07-13T07:28:35;101197.66;;;26.06
53512;BMP280;39392;52.832;13.816;2023-07-13T07:31:05;101200.41;;;26.06
53512;BMP280;39392;52.832;13.816;2023-07-13T07:33:34;101190.25;;;26.06
53512;BMP280;39392;52.832;13.816;2023-07-13T07:36:03;101190.03;;;26.08
53512;BMP280;39392;52.832;13.816;2023-07-13T07:38:36;101180.94;;;26.07
53512;BMP280;39392;52.832;13.816;2023-07-13T07:41:05;101190.03;;;26.08
53512;BMP280;39392;52.832;13.816;2023-07-13T07:43:36;101199.13;;;26.08
53512;BMP280;39392;52.832;13.816;2023-07-13T07:46:02;101202.72;;;26.09
53512;BMP280;39392;52.832;13.816;2023-07-13T07:48:30;101210.13;;;26.08
53512;BMP280;39392;52.832;13.816;2023-07-13T07:50:56;101204.41;;;26.10
53512;BMP280;39392;52.832;13.816;2023-07-13T07:53:23;101201.66;;;26.10
53512;BMP280;39392;52.832;13.816;2023-07-13T07:55:49;101200.81;;;26.10
53512;BMP280;39392;52.832;13.816;2023-07-13T07:58:19;101213.50;;;26.11
53512;BMP280;39392;52.832;13.816;2023-07-13T08:00:48;101208.00;;;26.11
53512;BMP280;39392;52.832;13.816;2023-07-13T08:03:17;101206.94;;;26.12
53512;BMP280;39392;52.832;13.816;2023-07-13T08:05:47;101213.25;;;26.12
53512;BMP280;39392;52.832;13.816;2023-07-13T08:08:34;101203.34;;;26.11
53512;BMP280;39392;52.832;13.816;2023-07-13T08:11:04;101207.78;;;26.12
53512;BMP280;39392;52.832;13.816;2023-07-13T08:13:51;101209.69;;;26.12
53512;BMP280;39392;52.832;13.816;2023-07-13T08:16:20;101215.16;;;26.12
53512;BMP280;39392;52.832;13.816;2023-07-13T08:18:48;101211.38;;;26.13
53512;BMP280;39392;52.832;13.816;2023-07-13T08:21:14;101208.41;;;26.14
53512;BMP280;39392;52.832;13.816;2023-07-13T08:23:41;101206.75;;;26.13
53512;BMP280;39392;52.832;13.816;2023-07-13T08:26:07;101212.00;;;26.15
53512;BMP280;39392;52.832;13.816;2023-07-13T08:28:34;101202.94;;;26.14
53512;BMP280;39392;52.832;13.816;2023-07-13T08:31:02;101220.25;;;26.15
53512;BMP280;39392;52.832;13.816;2023-07-13T08:33:28;101215.81;;;26.14
53512;BMP280;39392;52.832;13.816;2023-07-13T08:35:55;101208.41;;;26.14
53512;BMP280;39392;52.832;13.816;2023-07-13T08:38:22;101208.41;;;26.14
53512;BMP280;39392;52.832;13.816;2023-07-13T08:40:52;101201.25;;;26.13
53512;BMP280;39392;52.832;13.816;2023-07-13T08:43:20;101213.06;;;26.14
53512;BMP280;39392;52.832;13.816;2023-07-13T08:45:53;101212.00;;;26.15
53512;BMP280;39392;52.832;13.816;2023-07-13T08:48:21;101212.00;;;26.15
53512;BMP280;39392;52.832;13.816;2023-07-13T08:50:51;101207.34;;;26.15
53512;BMP280;39392;52.832;13.816;2023-07-13T08:53:30;101220.25;;;26.15
53512;BMP280;39392;52.832;13.816;2023-07-13T08:55:59;101223.63;;;26.17
53512;BMP280;39392;52.832;13.816;2023-07-13T08:58:26;101217.50;;;26.15
53512;BMP280;39392;52.832;13.816;2023-07-13T09:03:22;101224.69;;;26.16
53512;BMP280;39392;52.832;13.816;2023-07-13T09:05:54;101215.38;;;26.17
53512;BMP280;39392;52.832;13.816;2023-07-13T09:10:53;101217.50;;;26.15
53512;BMP280;39392;52.832;13.816;2023-07-13T09:15:52;101220.03;;;26.16
53512;BMP280;39392;52.832;13.816;2023-07-13T09:18:23;101220.03;;;26.16
53512;BMP280;39392;52.832;13.816;2023-07-13T09:23:23;101220.88;;;26.17
53512;BMP280;39392;52.832;13.816;2023-07-13T09:25:51;101217.94;;;26.18
53512;BMP280;39392;52.832;13.816;2023-07-13T09:28:24;101224.25;;;26.19
53512;BMP280;39392;52.832;13.816;2023-07-13T09:33:20;101219.84;;;26.18
53512;BMP280;39392;52.832;13.816;2023-07-13T09:35:46;101220.69;;;26.18
53512;BMP280;39392;52.832;13.816;2023-07-13T09:38:15;101217.09;;;26.18
53512;BMP280;39392;52.832;13.816;2023-07-13T09:40:49;101225.09;;;26.19
53512;BMP280;39392;52.832;13.816;2023-07-13T09:43:19;101223.41;;;26.18
53512;BMP280;39392;52.832;13.816;2023-07-13T09:45:46;101222.34;;;26.19
53512;BMP280;39392;52.832;13.816;2023-07-13T09:48:14;101220.44;;;26.20
53512;BMP280;39392;52.832;13.816;2023-07-13T09:50:41;101217.69;;;26.20
53512;BMP280;39392;52.832;13.816;2023-07-13T09:53:12;101221.28;;;26.20
53512;BMP280;39392;52.832;13.816;2023-07-13T09:55:39;101217.69;;;26.20
53512;BMP280;39392;52.832;13.816;2023-07-13T09:58:17;101220.44;;;26.20
53512;BMP280;39392;52.832;13.816;2023-07-13T10:00:56;101213.88;;;26.21
53512;BMP280;39392;52.832;13.816;2023-07-13T10:03:24;101210.31;;;26.20
53512;BMP280;39392;52.832;13.816;2023-07-13T10:05:52;101213.88;;;26.21
53512;BMP280;39392;52.832;13.816;2023-07-13T10:08:20;101213.03;;;26.20
53512;BMP280;39392;52.832;13.816;2023-07-13T10:10:51;101219.38;;;26.21
53512;BMP280;39392;52.832;13.816;2023-07-13T10:13:22;101224.88;;;26.21
53512;BMP280;39392;52.832;13.816;2023-07-13T10:15:51;101218.34;;;26.22
53512;BMP280;39392;52.832;13.816;2023-07-13T10:18:17;101220.25;;;26.21
53512;BMP280;39392;52.832;13.816;2023-07-13T10:20:45;101220.25;;;26.21
53512;BMP280;39392;52.832;13.816;2023-07-13T10:23:19;101209.28;;;26.21
53512;BMP280;39392;52.832;13.816;2023-07-13T10:25:48;101224.69;;;26.22
53512;BMP280;39392;52.832;13.816;2023-07-13T10:30:48;101225.53;;;26.23
53512;BMP280;39392;52.832;13.816;2023-07-13T10:33:15;101234.00;;;26.21
53512;BMP280;39392;52.832;13.816;2023-07-13T10:35:43;101220.25;;;26.21
53512;BMP280;39392;52.832;13.816;2023-07-13T10:38:18;101227.63;;;26.21
53512;BMP280;39392;52.832;13.816;2023-07-13T10:43:21;101243.28;;;26.20
53512;BMP280;39392;52.832;13.816;2023-07-13T10:45:50;101241.38;;;26.21
53512;BMP280;39392;52.832;13.816;2023-07-13T10:48:17;101240.53;;;26.20
53512;BMP280;39392;52.832;13.816;2023-07-13T10:50:45;101234.19;;;26.20
53512;BMP280;39392;52.832;13.816;2023-07-13T10:53:20;101235.03;;;26.20
53512;BMP280;39392;52.832;13.816;2023-07-13T10:58:22;101223.00;;;26.21
53512;BMP280;39392;52.832;13.816;2023-07-13T11:03:16;101224.03;;;26.20
53512;BMP280;39392;52.832;13.816;2023-07-13T11:05:44;101218.53;;;26.20
53512;BMP280;39392;52.832;13.816;2023-07-13T11:11:03;101223.41;;;26.18
53512;BMP280;39392;52.832;13.816;2023-07-13T11:21:29;101212.63;;;26.17
53512;BMP280;39392;52.832;13.816;2023-07-13T11:24:02;101219.84;;;26.18
53512;BMP280;39392;52.832;13.816;2023-07-13T11:31:41;101217.94;;;26.18
53512;BMP280;39392;52.832;13.816;2023-07-13T11:34:12;101216.03;;;26.19
53512;BMP280;39392;52.832;13.816;2023-07-13T11:36:44;101210.53;;;26.19
53512;BMP280;39392;52.832;13.816;2023-07-13T11:39:13;101215.78;;;26.20
53512;BMP280;39392;52.832;13.816;2023-07-13T11:41:44;101205.88;;;26.19
53512;BMP280;39392;52.832;13.816;2023-07-13T11:44:13;101200.38;;;26.19
53512;BMP280;39392;52.832;13.816;2023-07-13T11:46:44;101206.72;;;26.20
53512;BMP280;39392;52.832;13.816;2023-07-13T11:49:12;101211.38;;;26.19
53512;BMP280;39392;52.832;13.816;2023-07-13T11:51:42;101199.53;;;26.19
53512;BMP280;39392;52.832;13.816;2023-07-13T11:57:00;101193.81;;;26.20
53512;BMP280;39392;52.832;13.816;2023-07-13T11:59:29;101197.41;;;26.21
53512;BMP280;39392;52.832;13.816;2023-07-13T12:01:56;101197.41;;;26.21
53512;BMP280;39392;52.832;13.816;2023-07-13T12:04:29;101197.41;;;26.21
53512;BMP280;39392;52.832;13.816;2023-07-13T12:07:04;101195.53;;;26.21
53512;BMP280;39392;52.832;13.816;2023-07-13T12:09:32;101188.13;;;26.22
53512;BMP280;39392;52.832;13.816;2023-07-13T12:12:00;101197.22;;;26.22
53512;BMP280;39392;52.832;13.816;2023-07-13T12:14:27;101190.03;;;26.21
53512;BMP280;39392;52.832;13.816;2023-07-13T12:16:54;101182.63;;;26.22
53512;BMP280;39392;52.832;13.816;2023-07-13T12:19:22;101182.63;;;26.22
53512;BMP280;39392;52.832;13.816;2023-07-13T12:21:49;101191.72;;;26.22
53512;BMP280;39392;52.832;13.816;2023-07-13T12:24:17;101187.06;;;26.23
53512;BMP280;39392;52.832;13.816;2023-07-13T12:26:45;101185.38;;;26.22
53512;BMP280;39392;52.832;13.816;2023-07-13T12:29:16;101190.88;;;26.22
53512;BMP280;39392;52.832;13.816;2023-07-13T12:31:44;101178.81;;;26.23
53512;BMP280;39392;52.832;13.816;2023-07-13T12:34:12;101188.97;;;26.22
53512;BMP280;39392;52.832;13.816;2023-07-13T12:39:13;101188.97;;;26.22
53512;BMP280;39392;52.832;13.816;2023-07-13T12:41:41;101188.13;;;26.22
53512;BMP280;39392;52.832;13.816;2023-07-13T12:44:09;101183.66;;;26.21
53512;BMP280;39392;52.832;13.816;2023-07-13T12:46:37;101197.22;;;26.22
53512;BMP280;39392;52.832;13.816;2023-07-13T12:49:05;101193.63;;;26.22
53512;BMP280;39392;52.832;13.816;2023-07-13T12:51:43;101193.63;;;26.22
53512;BMP280;39392;52.832;13.816;2023-07-13T12:54:16;101185.38;;;26.22
53512;BMP280;39392;52.832;13.816;2023-07-13T12:56:43;101184.31;;;26.23
53512;BMP280;39392;52.832;13.816;2023-07-13T12:59:15;101187.06;;;26.23
53512;BMP280;39392;52.832;13.816;2023-07-13T13:01:43;101190.03;;;26.21
53512;BMP280;39392;52.832;13.816;2023-07-13T13:04:09;101187.28;;;26.21
53512;BMP280;39392;52.832;13.816;2023-07-13T13:06:39;101186.22;;;26.22
53512;BMP280;39392;52.832;13.816;2023-07-13T13:09:11;101205.47;;;26.22
53512;BMP280;39392;52.832;13.816;2023-07-13T13:11:39;101191.91;;;26.21
53512;BMP280;39392;52.832;13.816;2023-07-13T13:14:09;101185.38;;;26.22
53512;BMP280;39392;52.832;13.816;2023-07-13T13:16:38;101182.63;;;26.22
53512;BMP280;39392;52.832;13.816;2023-07-13T13:21:38;101186.22;;;26.22
53512;BMP280;39392;52.832;13.816;2023-07-13T13:24:15;101183.66;;;26.21
53512;BMP280;39392;52.832;13.816;2023-07-13T13:26:43;101179.03;;;26.21
53512;BMP280;39392;52.832;13.816;2023-07-13T13:29:11;101186.41;;;26.21
53512;BMP280;39392;52.832;13.816;2023-07-13T13:31:40;101193.63;;;26.22
53512;BMP280;39392;52.832;13.816;2023-07-13T13:34:08;101201.03;;;26.21
53512;BMP280;39392;52.832;13.816;2023-07-13T13:36:35;101192.78;;;26.21
53512;BMP280;39392;52.832;13.816;2023-07-13T13:39:02;101185.56;;;26.20
53512;BMP280;39392;52.832;13.816;2023-07-13T13:41:30;101185.56;;;26.20
53512;BMP280;39392;52.832;13.816;2023-07-13T13:43:57;101186.41;;;26.21
53512;BMP280;39392;52.832;13.816;2023-07-13T13:46:24;101183.66;;;26.21
53512;BMP280;39392;52.832;13.816;2023-07-13T13:48:56;101192.78;;;26.21
53512;BMP280;39392;52.832;13.816;2023-07-13T13:51:23;101185.56;;;26.20
53512;BMP280;39392;52.832;13.816;2023-07-13T13:53:50;101199.13;;;26.22
53512;BMP280;39392;52.832;13.816;2023-07-13T13:56:17;101190.88;;;26.22
53512;BMP280;39392;52.832;13.816;2023-07-13T13:58:44;101193.81;;;26.20
53512;BMP280;39392;52.832;13.816;2023-07-13T14:01:14;101191.91;;;26.21
53512;BMP280;39392;52.832;13.816;2023-07-13T14:03:42;101190.22;;;26.20
53512;BMP280;39392;52.832;13.816;2023-07-13T14:06:13;101192.78;;;26.21
53512;BMP280;39392;52.832;13.816;2023-07-13T14:08:39;101183.66;;;26.21
53512;BMP280;39392;52.832;13.816;2023-07-13T14:11:07;101188.31;;;26.20
53512;BMP280;39392;52.832;13.816;2023-07-13T14:13:38;101186.41;;;26.21
53512;BMP280;39392;52.832;13.816;2023-07-13T14:16:14;101182.00;;;26.20
53512;BMP280;39392;52.832;13.816;2023-07-13T14:18:41;101189.38;;;26.19
53512;BMP280;39392;52.832;13.816;2023-07-13T14:21:12;101188.31;;;26.20
53512;BMP280;39392;52.832;13.816;2023-07-13T14:23:38;101192.97;;;26.20
53512;BMP280;39392;52.832;13.816;2023-07-13T14:26:12;101191.06;;;26.20
53512;BMP280;39392;52.832;13.816;2023-07-13T14:28:43;101192.13;;;26.19
53512;BMP280;39392;52.832;13.816;2023-07-13T14:31:11;101182.81;;;26.20
53512;BMP280;39392;52.832;13.816;2023-07-13T14:33:38;101192.97;;;26.20
53512;BMP280;39392;52.832;13.816;2023-07-13T14:36:13;101193.81;;;26.20